sensor_id;sensor_type;location;lat;lon;timestamp;P1;durP1;ratioP1;P2;durP2;ratioP2
70406;SDS011;57821;52.202;0.154;2023-07-02T00:01:48;26.88;;;11.45;;
70406;SDS011;57821;52.202;0.154;2023-07-02T00:04:15;28.98;;;11.20;;
70406;SDS011;57821;52.202;0.154;2023-07-02T00:06:42;28.85;;;11.05;;
70406;SDS011;57821;52.202;0.154;2023-07-02T00:09:10;31.20;;;12.80;;
70406;SDS011;57821;52.202;0.154;2023-07-02T00:11:37;24.77;;;10.82;;
70406;SDS011;57821;52.202;0.154;2023-07-02T00:14:05;26.08;;;10.35;;
70406;SDS011;57821;52.202;0.154;2023-07-02T00:16:32;24.77;;;11.27;;
70406;SDS011;57821;52.202;0.154;2023-07-02T00:18:59;30.80;;;10.70;;
70406;SDS011;57821;52.202;0.154;2023-07-02T00:21:26;26.90;;;11.23;;
70406;SDS011;57821;52.202;0.154;2023-07-02T00:23:56;30.10;;;10.52;;
70406;SDS011;57821;52.202;0.154;2023-07-02T00:26:26;27.70;;;13.38;;
70406;SDS011;57821;52.202;0.154;2023-07-02T00:28:54;33.05;;;11.40;;
70406;SDS011;57821;52.202;0.154;2023-07-02T00:31:22;25.52;;;10.60;;
70406;SDS011;57821;52.202;0.154;2023-07-02T00:33:50;23.23;;;10.25;;
70406;SDS011;57821;52.202;0.154;2023-07-02T00:36:16;30.92;;;11.98;;
70406;SDS011;57821;52.202;0.154;2023-07-02T00:38:47;27.67;;;11.23;;
70406;SDS011;57821;52.202;0.154;2023-07-02T00:41:15;28.20;;;11.02;;
70406;SDS011;57821;52.202;0.154;2023-07-02T00:43:42;31.17;;;11.15;;
70406;SDS011;57821;52.202;0.154;2023-07-02T00:46:09;29.67;;;11.32;;
70406;SDS011;57821;52.202;0.154;2023-07-02T00:48:39;25.70;;;10.43;;
70406;SDS011;57821;52.202;0.154;2023-07-02T00:51:07;30.20;;;11.40;;
70406;SDS011;57821;52.202;0.154;2023-07-02T00:53:34;25.90;;;10.38;;
70406;SDS011;57821;52.202;0.154;2023-07-02T00:56:01;29.63;;;12.52;;
70406;SDS011;57821;52.202;0.154;2023-07-02T00:58:28;28.20;;;10.13;;
70406;SDS011;57821;52.202;0.154;2023-07-02T01:00:54;25.98;;;10.50;;
70406;SDS011;57821;52.202;0.154;2023-07-02T01:03:31;29.85;;;11.85;;
70406;SDS011;57821;52.202;0.154;2023-07-02T01:05:58;26.83;;;10.98;;
70406;SDS011;57821;52.202;0.154;2023-07-02T01:08:25;32.53;;;11.05;;
70406;SDS011;57821;52.202;0.154;2023-07-02T01:10:52;30.50;;;11.05;;
70406;SDS011;57821;52.202;0.154;2023-07-02T01:13:19;26.58;;;10.80;;
70406;SDS011;57821;52.202;0.154;2023-07-02T01:15:48;29.95;;;11.43;;
70406;SDS011;57821;52.202;0.154;2023-07-02T01:18:15;29.58;;;12.13;;
70406;SDS011;57821;52.202;0.154;2023-07-02T01:20:42;25.15;;;10.63;;
70406;SDS011;57821;52.202;0.154;2023-07-02T01:23:10;30.30;;;11.45;;
70406;SDS011;57821;52.202;0.154;2023-07-02T01:25:36;31.67;;;10.43;;
70406;SDS011;57821;52.202;0.154;2023-07-02T01:28:04;27.88;;;10.95;;
70406;SDS011;57821;52.202;0.154;2023-07-02T01:30:31;31.10;;;10.65;;
70406;SDS011;57821;52.202;0.154;2023-07-02T01:32:57;31.98;;;11.05;;
70406;SDS011;57821;52.202;0.154;2023-07-02T01:35:24;27.85;;;10.00;;
70406;SDS011;57821;52.202;0.154;2023-07-02T01:37:50;35.53;;;11.00;;
70406;SDS011;57821;52.202;0.154;2023-07-02T01:40:17;26.15;;;10.55;;
70406;SDS011;57821;52.202;0.154;2023-07-02T01:42:43;28.85;;;11.05;;
70406;SDS011;57821;52.202;0.154;2023-07-02T01:45:10;26.52;;;10.48;;
70406;SDS011;57821;52.202;0.154;2023-07-02T01:47:37;27.35;;;10.02;;
70406;SDS011;57821;52.202;0.154;2023-07-02T01:50:04;26.00;;;9.90;;
70406;SDS011;57821;52.202;0.154;2023-07-02T01:52:31;32.72;;;10.35;;
70406;SDS011;57821;52.202;0.154;2023-07-02T01:55:00;27.20;;;10.52;;
70406;SDS011;57821;52.202;0.154;2023-07-02T01:57:29;26.80;;;10.53;;
70406;SDS011;57821;52.202;0.154;2023-07-02T01:59:56;24.88;;;10.70;;
70406;SDS011;57821;52.202;0.154;2023-07-02T02:02:24;28.23;;;10.05;;
70406;SDS011;57821;52.202;0.154;2023-07-02T02:04:51;27.23;;;10.90;;
70406;SDS011;57821;52.202;0.154;2023-07-02T02:07:18;27.10;;;9.80;;
70406;SDS011;57821;52.202;0.154;2023-07-02T02:09:45;27.27;;;10.55;;
70406;SDS011;57821;52.202;0.154;2023-07-02T02:12:12;26.30;;;10.27;;
70406;SDS011;57821;52.202;0.154;2023-07-02T02:14:39;26.23;;;9.82;;
70406;SDS011;57821;52.202;0.154;2023-07-02T02:17:06;28.15;;;10.57;;
70406;SDS011;57821;52.202;0.154;2023-07-02T02:19:33;26.30;;;9.90;;
70406;SDS011;57821;52.202;0.154;2023-07-02T02:21:59;27.17;;;9.32;;
70406;SDS011;57821;52.202;0.154;2023-07-02T02:24:26;26.48;;;10.15;;
70406;SDS011;57821;52.202;0.154;2023-07-02T02:26:53;30.05;;;9.43;;
70406;SDS011;57821;52.202;0.154;2023-07-02T02:29:20;30.75;;;10.15;;
70406;SDS011;57821;52.202;0.154;2023-07-02T02:31:57;30.02;;;11.60;;
70406;SDS011;57821;52.202;0.154;2023-07-02T02:34:23;29.25;;;11.13;;
70406;SDS011;57821;52.202;0.154;2023-07-02T02:36:50;24.27;;;9.65;;
70406;SDS011;57821;52.202;0.154;2023-07-02T02:39:17;27.08;;;9.65;;
70406;SDS011;57821;52.202;0.154;2023-07-02T02:41:44;26.13;;;10.50;;
70406;SDS011;57821;52.202;0.154;2023-07-02T02:44:13;24.02;;;9.98;;
70406;SDS011;57821;52.202;0.154;2023-07-02T02:46:40;25.05;;;9.93;;
70406;SDS011;57821;52.202;0.154;2023-07-02T02:49:07;30.75;;;10.73;;
70406;SDS011;57821;52.202;0.154;2023-07-02T02:51:33;26.88;;;10.00;;
70406;SDS011;57821;52.202;0.154;2023-07-02T02:54:00;23.20;;;8.95;;
70406;SDS011;57821;52.202;0.154;2023-07-02T02:56:27;21.92;;;9.18;;
70406;SDS011;57821;52.202;0.154;2023-07-02T02:58:53;27.17;;;9.23;;
70406;SDS011;57821;52.202;0.154;2023-07-02T03:01:20;33.22;;;9.93;;
70406;SDS011;57821;52.202;0.154;2023-07-02T03:03:47;25.33;;;9.23;;
70406;SDS011;57821;52.202;0.154;2023-07-02T03:06:14;26.48;;;9.30;;
70406;SDS011;57821;52.202;0.154;2023-07-02T03:08:41;25.75;;;9.10;;
70406;SDS011;57821;52.202;0.154;2023-07-02T03:11:07;23.13;;;9.70;;
70406;SDS011;57821;52.202;0.154;2023-07-02T03:13:34;26.20;;;9.15;;
70406;SDS011;57821;52.202;0.154;2023-07-02T03:16:01;27.13;;;10.05;;
70406;SDS011;57821;52.202;0.154;2023-07-02T03:18:27;27.38;;;10.45;;
70406;SDS011;57821;52.202;0.154;2023-07-02T03:20:54;24.88;;;9.90;;
70406;SDS011;57821;52.202;0.154;2023-07-02T03:23:20;28.33;;;9.15;;
70406;SDS011;57821;52.202;0.154;2023-07-02T03:25:47;29.85;;;9.85;;
70406;SDS011;57821;52.202;0.154;2023-07-02T03:28:14;27.75;;;8.63;;
70406;SDS011;57821;52.202;0.154;2023-07-02T03:30:40;31.30;;;9.82;;
70406;SDS011;57821;52.202;0.154;2023-07-02T03:33:08;31.23;;;9.63;;
70406;SDS011;57821;52.202;0.154;2023-07-02T03:35:35;24.63;;;9.20;;
70406;SDS011;57821;52.202;0.154;2023-07-02T03:38:02;31.33;;;9.10;;
70406;SDS011;57821;52.202;0.154;2023-07-02T03:40:30;26.83;;;9.13;;
70406;SDS011;57821;52.202;0.154;2023-07-02T03:42:57;34.15;;;10.35;;
70406;SDS011;57821;52.202;0.154;2023-07-02T03:45:23;25.48;;;9.05;;
70406;SDS011;57821;52.202;0.154;2023-07-02T03:47:50;23.42;;;9.23;;
70406;SDS011;57821;52.202;0.154;2023-07-02T03:50:16;27.77;;;8.98;;
70406;SDS011;57821;52.202;0.154;2023-07-02T03:52:43;22.85;;;9.32;;
70406;SDS011;57821;52.202;0.154;2023-07-02T03:55:10;22.00;;;7.95;;
70406;SDS011;57821;52.202;0.154;2023-07-02T03:57:36;29.13;;;8.93;;
70406;SDS011;57821;52.202;0.154;2023-07-02T04:00:03;28.60;;;9.80;;
70406;SDS011;57821;52.202;0.154;2023-07-02T04:02:40;24.20;;;8.65;;
70406;SDS011;57821;52.202;0.154;2023-07-02T04:05:07;20.50;;;8.30;;
70406;SDS011;57821;52.202;0.154;2023-07-02T04:07:33;29.65;;;9.05;;
70406;SDS011;57821;52.202;0.154;2023-07-02T04:10:00;27.17;;;8.73;;
70406;SDS011;57821;52.202;0.154;2023-07-02T04:12:27;24.70;;;9.15;;
70406;SDS011;57821;52.202;0.154;2023-07-02T04:14:53;31.75;;;9.13;;
70406;SDS011;57821;52.202;0.154;2023-07-02T04:17:20;21.63;;;8.32;;
70406;SDS011;57821;52.202;0.154;2023-07-02T04:19:47;21.27;;;8.93;;
70406;SDS011;57821;52.202;0.154;2023-07-02T04:22:13;26.70;;;9.40;;
70406;SDS011;57821;52.202;0.154;2023-07-02T04:24:40;24.95;;;8.82;;
70406;SDS011;57821;52.202;0.154;2023-07-02T04:27:07;23.65;;;9.20;;
70406;SDS011;57821;52.202;0.154;2023-07-02T04:29:55;21.90;;;8.95;;
70406;SDS011;57821;52.202;0.154;2023-07-02T04:32:22;27.67;;;9.15;;
70406;SDS011;57821;52.202;0.154;2023-07-02T04:34:48;33.38;;;10.57;;
70406;SDS011;57821;52.202;0.154;2023-07-02T04:37:15;26.20;;;9.52;;
70406;SDS011;57821;52.202;0.154;2023-07-02T04:39:41;25.95;;;9.85;;
70406;SDS011;57821;52.202;0.154;2023-07-02T04:42:08;23.30;;;8.85;;
70406;SDS011;57821;52.202;0.154;2023-07-02T04:44:34;27.20;;;9.10;;
70406;SDS011;57821;52.202;0.154;2023-07-02T04:47:01;28.52;;;9.70;;
70406;SDS011;57821;52.202;0.154;2023-07-02T04:49:28;21.63;;;8.82;;
70406;SDS011;57821;52.202;0.154;2023-07-02T04:51:54;29.45;;;9.77;;
70406;SDS011;57821;52.202;0.154;2023-07-02T04:54:21;31.40;;;9.32;;
70406;SDS011;57821;52.202;0.154;2023-07-02T04:56:48;28.15;;;8.85;;
70406;SDS011;57821;52.202;0.154;2023-07-02T04:59:15;25.33;;;8.48;;
70406;SDS011;57821;52.202;0.154;2023-07-02T05:01:41;30.33;;;9.88;;
70406;SDS011;57821;52.202;0.154;2023-07-02T05:04:12;23.77;;;9.43;;
70406;SDS011;57821;52.202;0.154;2023-07-02T05:06:39;29.33;;;8.55;;
70406;SDS011;57821;52.202;0.154;2023-07-02T05:09:05;28.35;;;9.95;;
70406;SDS011;57821;52.202;0.154;2023-07-02T05:11:32;26.00;;;8.85;;
70406;SDS011;57821;52.202;0.154;2023-07-02T05:13:58;25.92;;;9.35;;
70406;SDS011;57821;52.202;0.154;2023-07-02T05:16:25;26.70;;;8.93;;
70406;SDS011;57821;52.202;0.154;2023-07-02T05:18:52;22.63;;;8.90;;
70406;SDS011;57821;52.202;0.154;2023-07-02T05:21:18;27.80;;;9.07;;
70406;SDS011;57821;52.202;0.154;2023-07-02T05:23:45;24.15;;;8.43;;
70406;SDS011;57821;52.202;0.154;2023-07-02T05:26:12;23.17;;;8.02;;
70406;SDS011;57821;52.202;0.154;2023-07-02T05:28:39;29.58;;;8.68;;
70406;SDS011;57821;52.202;0.154;2023-07-02T05:31:06;28.25;;;8.60;;
70406;SDS011;57821;52.202;0.154;2023-07-02T05:33:32;26.77;;;8.00;;
70406;SDS011;57821;52.202;0.154;2023-07-02T05:35:59;25.90;;;7.97;;
70406;SDS011;57821;52.202;0.154;2023-07-02T05:38:25;27.85;;;7.97;;
70406;SDS011;57821;52.202;0.154;2023-07-02T05:40:52;22.90;;;8.93;;
70406;SDS011;57821;52.202;0.154;2023-07-02T05:43:19;23.10;;;7.47;;
70406;SDS011;57821;52.202;0.154;2023-07-02T05:45:45;22.75;;;7.63;;
70406;SDS011;57821;52.202;0.154;2023-07-02T05:48:12;18.88;;;6.90;;
70406;SDS011;57821;52.202;0.154;2023-07-02T05:50:38;21.98;;;8.55;;
70406;SDS011;57821;52.202;0.154;2023-07-02T05:53:05;23.23;;;7.32;;
70406;SDS011;57821;52.202;0.154;2023-07-02T05:55:32;22.92;;;7.47;;
70406;SDS011;57821;52.202;0.154;2023-07-02T05:57:58;19.13;;;7.70;;
70406;SDS011;57821;52.202;0.154;2023-07-02T06:00:25;24.95;;;8.50;;
70406;SDS011;57821;52.202;0.154;2023-07-02T06:02:51;23.10;;;7.97;;
70406;SDS011;57821;52.202;0.154;2023-07-02T06:05:18;26.17;;;8.60;;
70406;SDS011;57821;52.202;0.154;2023-07-02T06:07:45;17.25;;;7.18;;
70406;SDS011;57821;52.202;0.154;2023-07-02T06:10:11;23.63;;;7.03;;
70406;SDS011;57821;52.202;0.154;2023-07-02T06:12:38;23.90;;;7.53;;
70406;SDS011;57821;52.202;0.154;2023-07-02T06:15:05;20.52;;;6.40;;
70406;SDS011;57821;52.202;0.154;2023-07-02T06:17:32;20.38;;;7.32;;
70406;SDS011;57821;52.202;0.154;2023-07-02T06:20:02;19.60;;;6.90;;
70406;SDS011;57821;52.202;0.154;2023-07-02T06:22:30;15.15;;;6.20;;
70406;SDS011;57821;52.202;0.154;2023-07-02T06:24:57;19.48;;;6.15;;
70406;SDS011;57821;52.202;0.154;2023-07-02T06:27:23;19.40;;;7.55;;
70406;SDS011;57821;52.202;0.154;2023-07-02T06:29:50;17.02;;;6.05;;
70406;SDS011;57821;52.202;0.154;2023-07-02T06:32:17;20.23;;;6.78;;
70406;SDS011;57821;52.202;0.154;2023-07-02T06:34:43;19.08;;;6.93;;
70406;SDS011;57821;52.202;0.154;2023-07-02T06:37:10;19.58;;;6.07;;
70406;SDS011;57821;52.202;0.154;2023-07-02T06:39:36;16.02;;;5.90;;
70406;SDS011;57821;52.202;0.154;2023-07-02T06:42:03;16.20;;;5.50;;
70406;SDS011;57821;52.202;0.154;2023-07-02T06:44:30;15.13;;;5.53;;
70406;SDS011;57821;52.202;0.154;2023-07-02T06:46:56;13.55;;;5.82;;
70406;SDS011;57821;52.202;0.154;2023-07-02T06:49:23;14.35;;;5.05;;
70406;SDS011;57821;52.202;0.154;2023-07-02T06:51:50;21.75;;;5.93;;
70406;SDS011;57821;52.202;0.154;2023-07-02T06:54:16;20.58;;;7.18;;
70406;SDS011;57821;52.202;0.154;2023-07-02T06:56:43;17.77;;;5.53;;
70406;SDS011;57821;52.202;0.154;2023-07-02T06:59:09;17.15;;;5.72;;
70406;SDS011;57821;52.202;0.154;2023-07-02T07:01:36;15.55;;;4.97;;
70406;SDS011;57821;52.202;0.154;2023-07-02T07:04:03;15.63;;;4.85;;
70406;SDS011;57821;52.202;0.154;2023-07-02T07:06:30;17.33;;;5.53;;
70406;SDS011;57821;52.202;0.154;2023-07-02T07:08:56;14.38;;;5.18;;
70406;SDS011;57821;52.202;0.154;2023-07-02T07:11:23;19.23;;;5.85;;
70406;SDS011;57821;52.202;0.154;2023-07-02T07:13:49;14.63;;;4.88;;
70406;SDS011;57821;52.202;0.154;2023-07-02T07:16:16;15.82;;;6.00;;
70406;SDS011;57821;52.202;0.154;2023-07-02T07:18:43;14.13;;;4.45;;
70406;SDS011;57821;52.202;0.154;2023-07-02T07:21:10;13.73;;;4.47;;
70406;SDS011;57821;52.202;0.154;2023-07-02T07:23:37;12.32;;;4.20;;
70406;SDS011;57821;52.202;0.154;2023-07-02T07:26:03;11.63;;;3.95;;
70406;SDS011;57821;52.202;0.154;2023-07-02T07:28:30;12.65;;;4.85;;
70406;SDS011;57821;52.202;0.154;2023-07-02T07:30:56;11.57;;;4.40;;
70406;SDS011;57821;52.202;0.154;2023-07-02T07:33:23;13.57;;;3.63;;
70406;SDS011;57821;52.202;0.154;2023-07-02T07:35:50;20.63;;;5.32;;
70406;SDS011;57821;52.202;0.154;2023-07-02T07:38:16;14.00;;;4.20;;
70406;SDS011;57821;52.202;0.154;2023-07-02T07:40:43;17.55;;;4.85;;
70406;SDS011;57821;52.202;0.154;2023-07-02T07:43:10;13.82;;;4.47;;
70406;SDS011;57821;52.202;0.154;2023-07-02T07:45:36;15.00;;;3.92;;
70406;SDS011;57821;52.202;0.154;2023-07-02T07:48:04;15.82;;;3.67;;
70406;SDS011;57821;52.202;0.154;2023-07-02T07:50:31;12.13;;;3.30;;
70406;SDS011;57821;52.202;0.154;2023-07-02T07:52:58;11.52;;;3.78;;
70406;SDS011;57821;52.202;0.154;2023-07-02T07:55:25;13.30;;;4.00;;
70406;SDS011;57821;52.202;0.154;2023-07-02T07:57:52;11.73;;;3.85;;
70406;SDS011;57821;52.202;0.154;2023-07-02T08:00:18;14.57;;;4.15;;
70406;SDS011;57821;52.202;0.154;2023-07-02T08:02:45;10.27;;;2.92;;
70406;SDS011;57821;52.202;0.154;2023-07-02T08:05:13;9.32;;;3.15;;
70406;SDS011;57821;52.202;0.154;2023-07-02T08:07:39;14.18;;;3.65;;
70406;SDS011;57821;52.202;0.154;2023-07-02T08:10:06;10.90;;;3.42;;
70406;SDS011;57821;52.202;0.154;2023-07-02T08:12:33;11.73;;;3.42;;
70406;SDS011;57821;52.202;0.154;2023-07-02T08:15:00;11.93;;;3.50;;
70406;SDS011;57821;52.202;0.154;2023-07-02T08:17:27;9.07;;;2.80;;
70406;SDS011;57821;52.202;0.154;2023-07-02T08:19:53;7.93;;;2.92;;
70406;SDS011;57821;52.202;0.154;2023-07-02T08:22:20;8.98;;;3.90;;
70406;SDS011;57821;52.202;0.154;2023-07-02T08:24:46;10.45;;;3.20;;
70406;SDS011;57821;52.202;0.154;2023-07-02T08:27:13;12.07;;;2.83;;
70406;SDS011;57821;52.202;0.154;2023-07-02T08:29:40;9.77;;;3.55;;
70406;SDS011;57821;52.202;0.154;2023-07-02T08:32:06;8.65;;;2.85;;
70406;SDS011;57821;52.202;0.154;2023-07-02T08:34:33;12.07;;;2.70;;
70406;SDS011;57821;52.202;0.154;2023-07-02T08:37:00;6.78;;;2.40;;
70406;SDS011;57821;52.202;0.154;2023-07-02T08:39:26;9.50;;;2.83;;
70406;SDS011;57821;52.202;0.154;2023-07-02T08:41:53;9.52;;;2.95;;
70406;SDS011;57821;52.202;0.154;2023-07-02T08:44:20;12.93;;;2.92;;
70406;SDS011;57821;52.202;0.154;2023-07-02T08:46:47;12.80;;;3.58;;
70406;SDS011;57821;52.202;0.154;2023-07-02T08:49:14;9.98;;;3.38;;
70406;SDS011;57821;52.202;0.154;2023-07-02T08:51:41;9.48;;;3.03;;
70406;SDS011;57821;52.202;0.154;2023-07-02T08:54:10;9.63;;;3.38;;
70406;SDS011;57821;52.202;0.154;2023-07-02T08:56:38;7.50;;;2.90;;
70406;SDS011;57821;52.202;0.154;2023-07-02T08:59:08;7.78;;;2.40;;
70406;SDS011;57821;52.202;0.154;2023-07-02T09:01:48;8.25;;;1.98;;
70406;SDS011;57821;52.202;0.154;2023-07-02T09:04:23;11.43;;;2.80;;
70406;SDS011;57821;52.202;0.154;2023-07-02T09:07:04;10.43;;;2.72;;
70406;SDS011;57821;52.202;0.154;2023-07-02T09:09:47;9.45;;;3.08;;
70406;SDS011;57821;52.202;0.154;2023-07-02T09:12:24;8.13;;;2.60;;
70406;SDS011;57821;52.202;0.154;2023-07-02T09:14:58;9.07;;;2.90;;
70406;SDS011;57821;52.202;0.154;2023-07-02T09:17:31;10.95;;;3.05;;
70406;SDS011;57821;52.202;0.154;2023-07-02T09:20:00;8.38;;;2.75;;
70406;SDS011;57821;52.202;0.154;2023-07-02T09:22:28;9.68;;;2.80;;
70406;SDS011;57821;52.202;0.154;2023-07-02T09:24:56;9.07;;;2.92;;
70406;SDS011;57821;52.202;0.154;2023-07-02T09:27:33;9.82;;;3.00;;
70406;SDS011;57821;52.202;0.154;2023-07-02T09:30:11;9.50;;;2.83;;
70406;SDS011;57821;52.202;0.154;2023-07-02T09:32:39;9.88;;;3.08;;
70406;SDS011;57821;52.202;0.154;2023-07-02T09:35:06;8.60;;;2.90;;
70406;SDS011;57821;52.202;0.154;2023-07-02T09:37:33;9.05;;;2.88;;
70406;SDS011;57821;52.202;0.154;2023-07-02T09:40:00;10.18;;;3.13;;
70406;SDS011;57821;52.202;0.154;2023-07-02T09:42:27;9.15;;;2.90;;
70406;SDS011;57821;52.202;0.154;2023-07-02T09:44:54;10.15;;;3.38;;
70406;SDS011;57821;52.202;0.154;2023-07-02T09:47:21;9.90;;;3.25;;
70406;SDS011;57821;52.202;0.154;2023-07-02T09:49:54;8.38;;;3.00;;
70406;SDS011;57821;52.202;0.154;2023-07-02T09:52:24;7.60;;;2.55;;
70406;SDS011;57821;52.202;0.154;2023-07-02T09:54:51;12.23;;;3.42;;
70406;SDS011;57821;52.202;0.154;2023-07-02T09:57:18;10.30;;;3.60;;
70406;SDS011;57821;52.202;0.154;2023-07-02T09:59:44;9.45;;;3.13;;
70406;SDS011;57821;52.202;0.154;2023-07-02T10:02:12;8.65;;;3.22;;
70406;SDS011;57821;52.202;0.154;2023-07-02T10:04:45;11.88;;;3.38;;
70406;SDS011;57821;52.202;0.154;2023-07-02T10:07:25;9.07;;;2.92;;
70406;SDS011;57821;52.202;0.154;2023-07-02T10:09:52;10.05;;;2.97;;
70406;SDS011;57821;52.202;0.154;2023-07-02T10:12:23;8.93;;;3.17;;
70406;SDS011;57821;52.202;0.154;2023-07-02T10:14:54;11.65;;;3.03;;
70406;SDS011;57821;52.202;0.154;2023-07-02T10:17:29;8.68;;;2.75;;
70406;SDS011;57821;52.202;0.154;2023-07-02T10:19:59;14.25;;;3.28;;
70406;SDS011;57821;52.202;0.154;2023-07-02T10:22:27;9.18;;;3.25;;
70406;SDS011;57821;52.202;0.154;2023-07-02T10:24:57;13.50;;;3.50;;
70406;SDS011;57821;52.202;0.154;2023-07-02T10:27:34;10.43;;;3.22;;
70406;SDS011;57821;52.202;0.154;2023-07-02T10:30:01;6.65;;;2.45;;
70406;SDS011;57821;52.202;0.154;2023-07-02T10:32:29;8.73;;;2.47;;
70406;SDS011;57821;52.202;0.154;2023-07-02T10:34:56;7.68;;;2.83;;
70406;SDS011;57821;52.202;0.154;2023-07-02T10:37:22;9.75;;;2.67;;
70406;SDS011;57821;52.202;0.154;2023-07-02T10:39:49;9.48;;;2.97;;
70406;SDS011;57821;52.202;0.154;2023-07-02T10:42:16;10.00;;;3.05;;
70406;SDS011;57821;52.202;0.154;2023-07-02T10:44:52;13.10;;;3.33;;
70406;SDS011;57821;52.202;0.154;2023-07-02T10:47:19;10.85;;;3.35;;
70406;SDS011;57821;52.202;0.154;2023-07-02T10:49:46;10.55;;;3.00;;
70406;SDS011;57821;52.202;0.154;2023-07-02T10:52:12;12.70;;;3.38;;
70406;SDS011;57821;52.202;0.154;2023-07-02T10:54:40;8.75;;;3.15;;
70406;SDS011;57821;52.202;0.154;2023-07-02T10:57:12;11.45;;;3.42;;
70406;SDS011;57821;52.202;0.154;2023-07-02T10:59:40;10.27;;;3.33;;
70406;SDS011;57821;52.202;0.154;2023-07-02T11:02:07;9.43;;;2.53;;
70406;SDS011;57821;52.202;0.154;2023-07-02T11:04:35;9.85;;;3.08;;
70406;SDS011;57821;52.202;0.154;2023-07-02T11:07:02;13.45;;;3.83;;
70406;SDS011;57821;52.202;0.154;2023-07-02T11:09:29;9.95;;;3.00;;
70406;SDS011;57821;52.202;0.154;2023-07-02T11:11:56;8.38;;;3.15;;
70406;SDS011;57821;52.202;0.154;2023-07-02T11:16:59;9.27;;;3.60;;
70406;SDS011;57821;52.202;0.154;2023-07-02T11:19:28;9.95;;;3.00;;
70406;SDS011;57821;52.202;0.154;2023-07-02T11:21:56;7.40;;;2.80;;
70406;SDS011;57821;52.202;0.154;2023-07-02T11:24:27;11.75;;;3.25;;
70406;SDS011;57821;52.202;0.154;2023-07-02T11:26:54;14.30;;;3.30;;
70406;SDS011;57821;52.202;0.154;2023-07-02T11:29:21;12.15;;;3.25;;
70406;SDS011;57821;52.202;0.154;2023-07-02T11:31:47;14.43;;;3.80;;
70406;SDS011;57821;52.202;0.154;2023-07-02T11:34:18;11.48;;;3.40;;
70406;SDS011;57821;52.202;0.154;2023-07-02T11:36:50;11.98;;;3.13;;
70406;SDS011;57821;52.202;0.154;2023-07-02T11:39:17;10.50;;;3.10;;
70406;SDS011;57821;52.202;0.154;2023-07-02T11:41:44;10.88;;;3.42;;
70406;SDS011;57821;52.202;0.154;2023-07-02T11:44:11;10.05;;;3.10;;
70406;SDS011;57821;52.202;0.154;2023-07-02T11:46:38;11.68;;;3.13;;
70406;SDS011;57821;52.202;0.154;2023-07-02T11:49:04;10.20;;;2.90;;
70406;SDS011;57821;52.202;0.154;2023-07-02T11:51:31;8.52;;;3.08;;
70406;SDS011;57821;52.202;0.154;2023-07-02T11:53:57;10.07;;;3.00;;
70406;SDS011;57821;52.202;0.154;2023-07-02T11:56:24;9.02;;;2.58;;
70406;SDS011;57821;52.202;0.154;2023-07-02T11:58:50;13.02;;;3.33;;
70406;SDS011;57821;52.202;0.154;2023-07-02T12:01:17;14.93;;;4.25;;
70406;SDS011;57821;52.202;0.154;2023-07-02T12:03:44;13.38;;;3.28;;
70406;SDS011;57821;52.202;0.154;2023-07-02T12:06:11;11.15;;;2.80;;
70406;SDS011;57821;52.202;0.154;2023-07-02T12:08:38;14.10;;;3.95;;
70406;SDS011;57821;52.202;0.154;2023-07-02T12:11:04;9.60;;;2.90;;
70406;SDS011;57821;52.202;0.154;2023-07-02T12:13:31;9.52;;;3.38;;
70406;SDS011;57821;52.202;0.154;2023-07-02T12:15:57;9.15;;;2.75;;
70406;SDS011;57821;52.202;0.154;2023-07-02T12:18:24;9.50;;;3.00;;
70406;SDS011;57821;52.202;0.154;2023-07-02T12:20:51;7.70;;;2.95;;
70406;SDS011;57821;52.202;0.154;2023-07-02T12:23:17;10.30;;;2.47;;
70406;SDS011;57821;52.202;0.154;2023-07-02T12:25:44;9.27;;;3.35;;
70406;SDS011;57821;52.202;0.154;2023-07-02T12:28:10;10.77;;;2.75;;
70406;SDS011;57821;52.202;0.154;2023-07-02T12:30:39;9.57;;;2.75;;
70406;SDS011;57821;52.202;0.154;2023-07-02T12:33:05;12.45;;;3.25;;
70406;SDS011;57821;52.202;0.154;2023-07-02T12:35:32;10.48;;;2.70;;
70406;SDS011;57821;52.202;0.154;2023-07-02T12:37:59;10.00;;;3.00;;
70406;SDS011;57821;52.202;0.154;2023-07-02T12:40:26;12.10;;;3.22;;
70406;SDS011;57821;52.202;0.154;2023-07-02T12:42:52;13.50;;;3.08;;
70406;SDS011;57821;52.202;0.154;2023-07-02T12:45:19;8.88;;;2.88;;
70406;SDS011;57821;52.202;0.154;2023-07-02T12:47:47;9.10;;;2.47;;
70406;SDS011;57821;52.202;0.154;2023-07-02T12:50:14;16.83;;;5.15;;
70406;SDS011;57821;52.202;0.154;2023-07-02T12:52:41;9.23;;;2.58;;
70406;SDS011;57821;52.202;0.154;2023-07-02T12:55:07;8.88;;;2.85;;
70406;SDS011;57821;52.202;0.154;2023-07-02T12:57:34;10.68;;;2.70;;
70406;SDS011;57821;52.202;0.154;2023-07-02T13:00:01;13.98;;;3.20;;
70406;SDS011;57821;52.202;0.154;2023-07-02T13:02:28;11.20;;;2.42;;
70406;SDS011;57821;52.202;0.154;2023-07-02T13:04:55;8.63;;;2.60;;
70406;SDS011;57821;52.202;0.154;2023-07-02T13:07:22;8.95;;;3.10;;
70406;SDS011;57821;52.202;0.154;2023-07-02T13:09:48;8.68;;;2.55;;
70406;SDS011;57821;52.202;0.154;2023-07-02T13:12:15;9.48;;;2.80;;
70406;SDS011;57821;52.202;0.154;2023-07-02T13:14:42;10.38;;;2.40;;
70406;SDS011;57821;52.202;0.154;2023-07-02T13:17:09;15.80;;;2.80;;
70406;SDS011;57821;52.202;0.154;2023-07-02T13:19:35;9.80;;;2.65;;
70406;SDS011;57821;52.202;0.154;2023-07-02T13:22:02;8.07;;;2.55;;
70406;SDS011;57821;52.202;0.154;2023-07-02T13:24:32;11.75;;;3.45;;
70406;SDS011;57821;52.202;0.154;2023-07-02T13:27:00;8.15;;;2.28;;
70406;SDS011;57821;52.202;0.154;2023-07-02T13:29:28;10.07;;;2.33;;
70406;SDS011;57821;52.202;0.154;2023-07-02T13:31:56;8.20;;;2.08;;
70406;SDS011;57821;52.202;0.154;2023-07-02T13:34:23;8.85;;;2.22;;
70406;SDS011;57821;52.202;0.154;2023-07-02T13:36:49;8.98;;;2.20;;
70406;SDS011;57821;52.202;0.154;2023-07-02T13:39:16;11.13;;;2.10;;
70406;SDS011;57821;52.202;0.154;2023-07-02T13:41:42;13.00;;;2.22;;
70406;SDS011;57821;52.202;0.154;2023-07-02T13:44:09;11.77;;;2.22;;
70406;SDS011;57821;52.202;0.154;2023-07-02T13:46:36;6.82;;;1.75;;
70406;SDS011;57821;52.202;0.154;2023-07-02T13:49:02;9.38;;;2.35;;
70406;SDS011;57821;52.202;0.154;2023-07-02T13:51:29;11.27;;;1.95;;
70406;SDS011;57821;52.202;0.154;2023-07-02T13:53:55;6.63;;;2.00;;
70406;SDS011;57821;52.202;0.154;2023-07-02T13:56:22;8.77;;;2.30;;
70406;SDS011;57821;52.202;0.154;2023-07-02T14:01:21;8.15;;;1.90;;
70406;SDS011;57821;52.202;0.154;2023-07-02T14:03:51;6.43;;;1.93;;
70406;SDS011;57821;52.202;0.154;2023-07-02T14:06:18;9.80;;;2.28;;
70406;SDS011;57821;52.202;0.154;2023-07-02T14:08:45;9.70;;;2.28;;
70406;SDS011;57821;52.202;0.154;2023-07-02T14:11:14;8.38;;;2.38;;
70406;SDS011;57821;52.202;0.154;2023-07-02T14:13:41;8.15;;;2.45;;
70406;SDS011;57821;52.202;0.154;2023-07-02T14:16:07;9.48;;;2.38;;
70406;SDS011;57821;52.202;0.154;2023-07-02T14:18:34;8.80;;;2.08;;
70406;SDS011;57821;52.202;0.154;2023-07-02T14:21:01;6.97;;;2.08;;
70406;SDS011;57821;52.202;0.154;2023-07-02T14:23:27;9.50;;;2.33;;
70406;SDS011;57821;52.202;0.154;2023-07-02T14:25:54;10.70;;;2.45;;
70406;SDS011;57821;52.202;0.154;2023-07-02T14:28:21;10.95;;;2.38;;
70406;SDS011;57821;52.202;0.154;2023-07-02T14:30:47;8.32;;;2.33;;
70406;SDS011;57821;52.202;0.154;2023-07-02T14:33:14;7.60;;;1.73;;
70406;SDS011;57821;52.202;0.154;2023-07-02T14:35:40;11.55;;;2.20;;
70406;SDS011;57821;52.202;0.154;2023-07-02T14:38:07;10.93;;;2.20;;
70406;SDS011;57821;52.202;0.154;2023-07-02T14:40:34;9.35;;;1.90;;
70406;SDS011;57821;52.202;0.154;2023-07-02T14:43:00;7.65;;;1.95;;